createdAt,value
2019-06-15T00:08:32.598Z,100.00
2019-06-15T00:18:34.088Z,100.00
2019-06-15T00:28:35.591Z,100.00
2019-06-15T00:38:37.143Z,100.00
2019-06-15T00:48:38.563Z,100.00
2019-06-15T00:58:41.287Z,100.00
2019-06-15T01:08:42.832Z,100.00
2019-06-15T01:18:44.258Z,100.00
2019-06-15T01:28:47.736Z,100.00
2019-06-15T01:38:49.220Z,100.00
2019-06-15T01:48:50.748Z,100.00
2019-06-15T01:58:52.165Z,100.00
2019-06-15T02:08:53.630Z,100.00
2019-06-15T02:18:55.088Z,100.00
2019-06-15T02:28:56.569Z,100.00
2019-06-15T02:38:57.998Z,100.00
2019-06-15T02:48:59.628Z,100.00
2019-06-15T02:59:01.173Z,100.00
2019-06-15T03:09:04.733Z,100.00
2019-06-15T03:19:06.355Z,98.79
2019-06-15T03:29:07.840Z,98.37
2019-06-15T03:39:09.353Z,98.36
2019-06-15T03:49:10.776Z,100.00
2019-06-15T03:59:12.318Z,99.07
2019-06-15T04:09:15.655Z,99.40
2019-06-15T04:19:17.095Z,100.00
2019-06-15T04:29:18.556Z,100.00
2019-06-15T04:39:20.974Z,100.00
2019-06-15T04:49:22.538Z,100.00
2019-06-15T04:59:23.974Z,98.33
2019-06-15T05:09:25.408Z,94.56
2019-06-15T05:19:26.837Z,94.04
2019-06-15T05:29:31.316Z,87.33
2019-06-15T05:39:32.725Z,58.51
2019-06-15T05:49:34.157Z,30.15
2019-06-15T05:59:35.815Z,21.84
2019-06-15T06:09:37.238Z,29.31
2019-06-15T06:19:38.667Z,40.21
2019-06-15T06:29:40.266Z,35.23
2019-06-15T06:39:41.716Z,23.77
2019-06-15T06:49:43.264Z,17.61
2019-06-15T06:59:44.712Z,17.41
2019-06-15T07:09:46.167Z,27.41
2019-06-15T07:19:47.696Z,18.46
2019-06-15T07:29:49.142Z,17.46
2019-06-15T07:39:50.576Z,16.53
2019-06-15T07:49:51.996Z,16.88
2019-06-15T07:59:53.450Z,19.69
2019-06-15T08:09:54.885Z,20.04
2019-06-15T08:19:56.302Z,18.33
2019-06-15T08:29:57.787Z,16.79
2019-06-15T08:39:59.368Z,24.32
2019-06-15T08:50:00.926Z,27.07
2019-06-15T09:00:07.119Z,24.91
2019-06-15T09:10:09.467Z,24.85
2019-06-15T09:20:11.610Z,25.57
2019-06-15T09:30:13.318Z,24.95
2019-06-15T09:40:15.934Z,19.25
2019-06-15T09:50:17.775Z,18.31
2019-06-15T10:00:19.427Z,18.12
2019-06-15T10:10:20.890Z,12.56
2019-06-15T10:20:22.537Z,11.03
2019-06-15T10:30:24.237Z,19.74
2019-06-15T10:40:26.122Z,16.05
2019-06-15T10:50:27.959Z,17.14
2019-06-15T11:00:29.689Z,13.67
2019-06-15T11:10:45.966Z,11.41
2019-06-15T11:20:47.627Z,11.82
2019-06-15T11:30:49.206Z,11.21
2019-06-15T11:40:50.692Z,12.45
2019-06-15T11:50:52.153Z,13.19
2019-06-15T12:00:53.819Z,15.29
2019-06-15T12:10:57.319Z,17.54
2019-06-15T12:21:01.180Z,20.05
2019-06-15T12:31:02.998Z,24.07
2019-06-15T12:41:04.787Z,29.26
2019-06-15T12:51:06.340Z,30.78
2019-06-15T13:01:07.914Z,34.36
2019-06-15T13:11:09.480Z,35.30
2019-06-15T13:21:10.945Z,37.47
2019-06-15T13:31:18.069Z,38.91
2019-06-15T13:41:16.039Z,41.32
2019-06-15T13:51:17.499Z,43.94
2019-06-15T14:01:33.332Z,43.47
2019-06-15T14:11:22.594Z,45.54
2019-06-15T14:21:24.052Z,45.64
2019-06-15T14:31:25.529Z,47.41
2019-06-15T14:41:26.974Z,45.16
2019-06-15T14:51:28.394Z,43.43
2019-06-15T15:01:29.824Z,47.10
2019-06-15T15:11:36.596Z,49.82
2019-06-15T15:21:37.727Z,49.71
2019-06-15T15:31:39.280Z,49.87
2019-06-15T15:41:41.320Z,48.45
2019-06-15T15:51:42.749Z,46.54
2019-06-15T16:01:46.165Z,44.43
2019-06-15T16:11:47.857Z,45.72
2019-06-15T16:21:49.507Z,46.73
2019-06-15T16:31:50.941Z,47.11
2019-06-15T16:41:52.841Z,48.48
2019-06-15T16:51:54.595Z,49.75
2019-06-15T17:01:56.145Z,50.81
2019-06-15T17:11:57.835Z,52.05
2019-06-15T17:22:13.758Z,52.20
2019-06-15T17:32:02.848Z,51.51
2019-06-15T17:42:06.912Z,53.35
2019-06-15T17:52:07.948Z,52.61
2019-06-15T18:02:09.488Z,54.65
2019-06-15T18:12:11.179Z,54.61
2019-06-15T18:22:12.633Z,56.24
2019-06-15T18:32:14.090Z,56.54
2019-06-15T18:42:16.440Z,57.46
2019-06-15T18:52:18.096Z,59.88
2019-06-15T19:02:19.532Z,61.00
2019-06-15T19:12:21.042Z,78.88
2019-06-15T19:22:22.476Z,94.55
2019-06-15T19:32:26.224Z,100.00
2019-06-15T19:42:27.758Z,100.00
2019-06-15T19:52:29.406Z,100.00
2019-06-15T20:02:30.853Z,100.00
2019-06-15T20:12:32.408Z,100.00
2019-06-15T20:22:37.023Z,100.00
2019-06-15T20:32:37.666Z,100.00
2019-06-15T20:42:39.120Z,100.00
